sensor_id;sensor_type;location;lat;lon;timestamp;temperature;humidity
14103;DHT22;7129;48.832;12.472;2022-07-10T00:04:35;17.70;99.90
14103;DHT22;7129;48.832;12.472;2022-07-10T00:09:39;17.60;99.90
14103;DHT22;7129;48.832;12.472;2022-07-10T00:14:55;17.60;99.90
14103;DHT22;7129;48.832;12.472;2022-07-10T00:19:57;17.60;99.90
14103;DHT22;7129;48.832;12.472;2022-07-10T00:25:05;17.60;99.90
14103;DHT22;7129;48.832;12.472;2022-07-10T00:30:46;17.60;99.90
14103;DHT22;7129;48.832;12.472;2022-07-10T00:35:50;17.60;99.90
14103;DHT22;7129;48.832;12.472;2022-07-10T00:40:54;17.50;99.90
14103;DHT22;7129;48.832;12.472;2022-07-10T00:46:07;17.50;99.90
14103;DHT22;7129;48.832;12.472;2022-07-10T00:51:09;17.50;99.90
14103;DHT22;7129;48.832;12.472;2022-07-10T01:01:43;17.40;99.90
14103;DHT22;7129;48.832;12.472;2022-07-10T01:06:45;17.30;99.90
14103;DHT22;7129;48.832;12.472;2022-07-10T01:11:47;17.30;99.90
14103;DHT22;7129;48.832;12.472;2022-07-10T01:16:51;17.30;99.90
14103;DHT22;7129;48.832;12.472;2022-07-10T01:21:55;17.30;99.90
14103;DHT22;7129;48.832;12.472;2022-07-10T01:26:59;17.30;99.90
14103;DHT22;7129;48.832;12.472;2022-07-10T01:32:01;17.30;99.90
14103;DHT22;7129;48.832;12.472;2022-07-10T01:37:04;17.30;99.90
14103;DHT22;7129;48.832;12.472;2022-07-10T01:42:06;17.20;99.90
14103;DHT22;7129;48.832;12.472;2022-07-10T01:47:08;17.20;99.90
14103;DHT22;7129;48.832;12.472;2022-07-10T01:52:12;17.20;99.90
14103;DHT22;7129;48.832;12.472;2022-07-10T01:57:20;17.10;99.90
14103;DHT22;7129;48.832;12.472;2022-07-10T02:02:22;17.10;99.90
14103;DHT22;7129;48.832;12.472;2022-07-10T02:07:26;17.00;99.90
14103;DHT22;7129;48.832;12.472;2022-07-10T02:12:31;16.90;99.90
14103;DHT22;7129;48.832;12.472;2022-07-10T02:17:33;16.90;99.90
14103;DHT22;7129;48.832;12.472;2022-07-10T02:22:40;16.80;99.90
14103;DHT22;7129;48.832;12.472;2022-07-10T02:27:43;16.80;99.90
14103;DHT22;7129;48.832;12.472;2022-07-10T02:32:51;16.70;99.90
14103;DHT22;7129;48.832;12.472;2022-07-10T02:38:03;16.70;99.90
14103;DHT22;7129;48.832;12.472;2022-07-10T02:43:55;16.60;99.90
14103;DHT22;7129;48.832;12.472;2022-07-10T02:48:42;16.60;99.90
14103;DHT22;7129;48.832;12.472;2022-07-10T02:53:46;16.50;99.90
14103;DHT22;7129;48.832;12.472;2022-07-10T02:58:55;16.60;99.90
14103;DHT22;7129;48.832;12.472;2022-07-10T03:04:01;16.60;99.90
14103;DHT22;7129;48.832;12.472;2022-07-10T03:09:12;16.50;99.90
14103;DHT22;7129;48.832;12.472;2022-07-10T03:14:28;16.50;99.90
14103;DHT22;7129;48.832;12.472;2022-07-10T03:19:30;16.40;99.90
14103;DHT22;7129;48.832;12.472;2022-07-10T03:24:35;16.30;99.90
14103;DHT22;7129;48.832;12.472;2022-07-10T03:29:37;16.20;99.90
14103;DHT22;7129;48.832;12.472;2022-07-10T03:34:48;16.20;99.90
14103;DHT22;7129;48.832;12.472;2022-07-10T03:40:00;16.10;99.90
14103;DHT22;7129;48.832;12.472;2022-07-10T03:45:05;16.00;99.90
14103;DHT22;7129;48.832;12.472;2022-07-10T03:50:10;16.00;99.90
14103;DHT22;7129;48.832;12.472;2022-07-10T03:55:15;16.00;99.90
14103;DHT22;7129;48.832;12.472;2022-07-10T04:00:51;16.00;99.90
14103;DHT22;7129;48.832;12.472;2022-07-10T04:06:01;15.90;99.90
14103;DHT22;7129;48.832;12.472;2022-07-10T04:11:04;15.90;99.90
14103;DHT22;7129;48.832;12.472;2022-07-10T04:16:19;15.90;99.90
14103;DHT22;7129;48.832;12.472;2022-07-10T04:21:23;15.70;99.90
14103;DHT22;7129;48.832;12.472;2022-07-10T04:32:30;15.80;99.90
14103;DHT22;7129;48.832;12.472;2022-07-10T04:37:46;15.80;99.90
14103;DHT22;7129;48.832;12.472;2022-07-10T04:42:53;15.80;99.90
14103;DHT22;7129;48.832;12.472;2022-07-10T04:48:18;15.90;99.90
14103;DHT22;7129;48.832;12.472;2022-07-10T04:53:20;15.90;99.90
14103;DHT22;7129;48.832;12.472;2022-07-10T04:58:24;15.90;99.90
14103;DHT22;7129;48.832;12.472;2022-07-10T05:03:28;16.00;99.90
14103;DHT22;7129;48.832;12.472;2022-07-10T05:08:30;16.10;99.90
14103;DHT22;7129;48.832;12.472;2022-07-10T05:13:32;16.10;99.90
14103;DHT22;7129;48.832;12.472;2022-07-10T05:18:36;16.10;99.90
14103;DHT22;7129;48.832;12.472;2022-07-10T05:23:38;16.30;99.90
14103;DHT22;7129;48.832;12.472;2022-07-10T05:28:59;16.40;99.90
14103;DHT22;7129;48.832;12.472;2022-07-10T05:34:12;16.60;99.90
14103;DHT22;7129;48.832;12.472;2022-07-10T05:44:56;16.60;99.90
14103;DHT22;7129;48.832;12.472;2022-07-10T05:50:22;16.60;99.90
14103;DHT22;7129;48.832;12.472;2022-07-10T05:55:32;16.60;99.90
14103;DHT22;7129;48.832;12.472;2022-07-10T06:00:34;16.60;99.90
14103;DHT22;7129;48.832;12.472;2022-07-10T06:05:50;16.50;99.90
14103;DHT22;7129;48.832;12.472;2022-07-10T06:11:13;16.70;99.90
14103;DHT22;7129;48.832;12.472;2022-07-10T06:16:14;16.90;99.90
14103;DHT22;7129;48.832;12.472;2022-07-10T06:21:18;17.30;99.90
14103;DHT22;7129;48.832;12.472;2022-07-10T06:26:22;17.60;99.90
14103;DHT22;7129;48.832;12.472;2022-07-10T06:31:24;17.90;99.90
14103;DHT22;7129;48.832;12.472;2022-07-10T06:36:28;18.00;99.90
14103;DHT22;7129;48.832;12.472;2022-07-10T06:41:30;18.10;99.90
14103;DHT22;7129;48.832;12.472;2022-07-10T06:46:32;18.20;99.90
14103;DHT22;7129;48.832;12.472;2022-07-10T06:51:36;18.30;99.90
14103;DHT22;7129;48.832;12.472;2022-07-10T06:56:38;18.40;99.90
14103;DHT22;7129;48.832;12.472;2022-07-10T07:01:39;18.40;99.90
14103;DHT22;7129;48.832;12.472;2022-07-10T07:06:43;18.50;99.90
14103;DHT22;7129;48.832;12.472;2022-07-10T07:11:45;18.80;99.90
14103;DHT22;7129;48.832;12.472;2022-07-10T07:16:47;19.20;99.90
14103;DHT22;7129;48.832;12.472;2022-07-10T07:22:00;19.50;99.90
14103;DHT22;7129;48.832;12.472;2022-07-10T07:27:18;19.60;99.90
14103;DHT22;7129;48.832;12.472;2022-07-10T07:32:20;19.60;99.90
14103;DHT22;7129;48.832;12.472;2022-07-10T07:37:34;19.80;99.90
14103;DHT22;7129;48.832;12.472;2022-07-10T07:42:36;20.10;99.90
14103;DHT22;7129;48.832;12.472;2022-07-10T07:47:46;20.20;99.90
14103;DHT22;7129;48.832;12.472;2022-07-10T07:52:50;20.40;99.90
14103;DHT22;7129;48.832;12.472;2022-07-10T07:57:52;20.70;99.90
14103;DHT22;7129;48.832;12.472;2022-07-10T08:02:56;20.70;99.90
14103;DHT22;7129;48.832;12.472;2022-07-10T08:08:00;20.60;99.90
14103;DHT22;7129;48.832;12.472;2022-07-10T08:13:05;20.80;99.90
14103;DHT22;7129;48.832;12.472;2022-07-10T08:18:07;20.70;99.80
14103;DHT22;7129;48.832;12.472;2022-07-10T08:23:10;20.60;99.90
14103;DHT22;7129;48.832;12.472;2022-07-10T08:28:12;20.60;99.00
14103;DHT22;7129;48.832;12.472;2022-07-10T08:33:14;20.20;98.80
14103;DHT22;7129;48.832;12.472;2022-07-10T08:38:17;19.90;99.90
14103;DHT22;7129;48.832;12.472;2022-07-10T08:43:19;19.90;99.60
14103;DHT22;7129;48.832;12.472;2022-07-10T08:48:22;19.90;99.90
14103;DHT22;7129;48.832;12.472;2022-07-10T08:53:29;19.90;99.70
14103;DHT22;7129;48.832;12.472;2022-07-10T08:58:33;20.20;99.90
14103;DHT22;7129;48.832;12.472;2022-07-10T09:03:36;20.50;99.70
14103;DHT22;7129;48.832;12.472;2022-07-10T09:08:57;20.40;98.30
14103;DHT22;7129;48.832;12.472;2022-07-10T09:14:01;20.50;99.20
14103;DHT22;7129;48.832;12.472;2022-07-10T09:19:21;20.50;98.30
14103;DHT22;7129;48.832;12.472;2022-07-10T09:24:25;20.10;98.00
14103;DHT22;7129;48.832;12.472;2022-07-10T09:29:27;19.70;98.90
14103;DHT22;7129;48.832;12.472;2022-07-10T09:34:37;19.90;99.90
14103;DHT22;7129;48.832;12.472;2022-07-10T09:39:57;20.60;99.50
14103;DHT22;7129;48.832;12.472;2022-07-10T09:45:17;20.90;98.30
14103;DHT22;7129;48.832;12.472;2022-07-10T09:51:00;20.60;97.40
14103;DHT22;7129;48.832;12.472;2022-07-10T09:56:55;20.20;97.00
14103;DHT22;7129;48.832;12.472;2022-07-10T10:01:59;20.10;97.60
14103;DHT22;7129;48.832;12.472;2022-07-10T10:07:01;19.90;97.40
14103;DHT22;7129;48.832;12.472;2022-07-10T10:12:12;19.80;97.30
14103;DHT22;7129;48.832;12.472;2022-07-10T10:17:16;19.80;96.30
14103;DHT22;7129;48.832;12.472;2022-07-10T10:22:21;19.70;97.30
14103;DHT22;7129;48.832;12.472;2022-07-10T10:27:26;20.00;97.70
14103;DHT22;7129;48.832;12.472;2022-07-10T10:43:18;20.20;96.80
14103;DHT22;7129;48.832;12.472;2022-07-10T10:48:21;21.00;95.10
14103;DHT22;7129;48.832;12.472;2022-07-10T10:53:25;20.60;94.30
14103;DHT22;7129;48.832;12.472;2022-07-10T10:58:39;20.30;95.10
14103;DHT22;7129;48.832;12.472;2022-07-10T11:04:14;20.10;95.30
14103;DHT22;7129;48.832;12.472;2022-07-10T11:09:25;20.00;95.70
14103;DHT22;7129;48.832;12.472;2022-07-10T11:14:30;20.20;96.30
14103;DHT22;7129;48.832;12.472;2022-07-10T11:19:33;20.30;94.60
14103;DHT22;7129;48.832;12.472;2022-07-10T11:24:48;20.30;95.50
14103;DHT22;7129;48.832;12.472;2022-07-10T11:29:58;20.60;95.70
14103;DHT22;7129;48.832;12.472;2022-07-10T11:35:00;21.00;95.40
14103;DHT22;7129;48.832;12.472;2022-07-10T11:40:12;21.10;94.00
14103;DHT22;7129;48.832;12.472;2022-07-10T11:45:26;21.10;93.80
14103;DHT22;7129;48.832;12.472;2022-07-10T11:50:34;21.00;92.80
14103;DHT22;7129;48.832;12.472;2022-07-10T11:55:37;20.80;93.80
14103;DHT22;7129;48.832;12.472;2022-07-10T12:00:42;20.90;93.60
14103;DHT22;7129;48.832;12.472;2022-07-10T12:05:45;20.90;94.30
14103;DHT22;7129;48.832;12.472;2022-07-10T12:10:47;21.10;94.60
14103;DHT22;7129;48.832;12.472;2022-07-10T12:15:50;21.40;94.20
14103;DHT22;7129;48.832;12.472;2022-07-10T12:20:52;21.40;92.80
14103;DHT22;7129;48.832;12.472;2022-07-10T12:25:55;21.20;93.50
14103;DHT22;7129;48.832;12.472;2022-07-10T12:30:58;21.50;92.80
14103;DHT22;7129;48.832;12.472;2022-07-10T12:36:00;21.80;91.50
14103;DHT22;7129;48.832;12.472;2022-07-10T12:41:07;21.70;90.90
14103;DHT22;7129;48.832;12.472;2022-07-10T12:46:14;21.60;92.20
14103;DHT22;7129;48.832;12.472;2022-07-10T12:51:23;21.40;91.80
14103;DHT22;7129;48.832;12.472;2022-07-10T12:56:30;21.20;92.40
14103;DHT22;7129;48.832;12.472;2022-07-10T13:01:44;21.00;90.90
14103;DHT22;7129;48.832;12.472;2022-07-10T13:06:46;20.80;90.60
14103;DHT22;7129;48.832;12.472;2022-07-10T13:11:48;20.80;91.60
14103;DHT22;7129;48.832;12.472;2022-07-10T13:16:51;20.80;90.60
14103;DHT22;7129;48.832;12.472;2022-07-10T13:21:56;20.70;91.40
14103;DHT22;7129;48.832;12.472;2022-07-10T13:45:10;21.30;92.20
14103;DHT22;7129;48.832;12.472;2022-07-10T13:50:12;21.40;91.70
14103;DHT22;7129;48.832;12.472;2022-07-10T13:55:15;21.40;91.40
14103;DHT22;7129;48.832;12.472;2022-07-10T14:00:18;21.40;90.40
14103;DHT22;7129;48.832;12.472;2022-07-10T14:05:20;21.20;89.10
14103;DHT22;7129;48.832;12.472;2022-07-10T14:10:22;21.10;89.70
14103;DHT22;7129;48.832;12.472;2022-07-10T14:15:25;20.90;90.00
14103;DHT22;7129;48.832;12.472;2022-07-10T14:20:29;20.80;89.80
14103;DHT22;7129;48.832;12.472;2022-07-10T14:26:03;20.70;89.40
14103;DHT22;7129;48.832;12.472;2022-07-10T14:31:07;20.60;91.00
14103;DHT22;7129;48.832;12.472;2022-07-10T14:36:09;20.50;88.60
14103;DHT22;7129;48.832;12.472;2022-07-10T14:41:13;20.60;91.10
14103;DHT22;7129;48.832;12.472;2022-07-10T14:46:42;20.80;90.10
14103;DHT22;7129;48.832;12.472;2022-07-10T14:51:44;20.90;89.10
14103;DHT22;7129;48.832;12.472;2022-07-10T14:56:46;20.90;88.40
14103;DHT22;7129;48.832;12.472;2022-07-10T15:01:51;20.60;89.60
14103;DHT22;7129;48.832;12.472;2022-07-10T15:06:54;20.50;90.30
14103;DHT22;7129;48.832;12.472;2022-07-10T15:11:56;20.40;88.70
14103;DHT22;7129;48.832;12.472;2022-07-10T15:16:59;20.30;90.10
14103;DHT22;7129;48.832;12.472;2022-07-10T15:22:01;20.30;90.70
14103;DHT22;7129;48.832;12.472;2022-07-10T15:27:06;20.20;90.60
14103;DHT22;7129;48.832;12.472;2022-07-10T15:32:09;20.20;90.50
14103;DHT22;7129;48.832;12.472;2022-07-10T15:37:11;20.10;90.30
14103;DHT22;7129;48.832;12.472;2022-07-10T15:42:13;20.00;91.00
14103;DHT22;7129;48.832;12.472;2022-07-10T15:47:16;20.00;89.70
14103;DHT22;7129;48.832;12.472;2022-07-10T15:52:18;20.00;90.20
14103;DHT22;7129;48.832;12.472;2022-07-10T15:57:20;20.00;90.50
14103;DHT22;7129;48.832;12.472;2022-07-10T16:02:23;20.10;88.50
14103;DHT22;7129;48.832;12.472;2022-07-10T16:07:27;20.20;90.20
14103;DHT22;7129;48.832;12.472;2022-07-10T16:12:29;20.10;90.00
14103;DHT22;7129;48.832;12.472;2022-07-10T16:17:32;20.00;90.20
14103;DHT22;7129;48.832;12.472;2022-07-10T16:22:34;20.00;90.10
14103;DHT22;7129;48.832;12.472;2022-07-10T16:27:36;19.90;90.60
14103;DHT22;7129;48.832;12.472;2022-07-10T16:32:43;19.80;90.30
14103;DHT22;7129;48.832;12.472;2022-07-10T16:37:46;19.80;90.80
14103;DHT22;7129;48.832;12.472;2022-07-10T16:42:48;19.70;90.40
14103;DHT22;7129;48.832;12.472;2022-07-10T16:47:52;19.70;89.60
14103;DHT22;7129;48.832;12.472;2022-07-10T16:52:55;19.70;90.00
14103;DHT22;7129;48.832;12.472;2022-07-10T16:57:57;19.70;90.30
14103;DHT22;7129;48.832;12.472;2022-07-10T17:03:01;19.60;89.50
14103;DHT22;7129;48.832;12.472;2022-07-10T17:08:04;19.50;90.80
14103;DHT22;7129;48.832;12.472;2022-07-10T17:13:08;19.40;90.20
14103;DHT22;7129;48.832;12.472;2022-07-10T17:18:12;19.20;90.20
14103;DHT22;7129;48.832;12.472;2022-07-10T17:23:14;19.20;91.10
14103;DHT22;7129;48.832;12.472;2022-07-10T17:28:16;19.20;91.30
14103;DHT22;7129;48.832;12.472;2022-07-10T17:33:19;19.20;91.20
14103;DHT22;7129;48.832;12.472;2022-07-10T17:38:21;19.20;91.60
14103;DHT22;7129;48.832;12.472;2022-07-10T17:43:23;19.20;91.80
14103;DHT22;7129;48.832;12.472;2022-07-10T17:48:27;19.30;91.30
14103;DHT22;7129;48.832;12.472;2022-07-10T17:53:29;19.30;90.90
14103;DHT22;7129;48.832;12.472;2022-07-10T17:58:34;19.10;91.60
14103;DHT22;7129;48.832;12.472;2022-07-10T18:03:37;19.10;91.30
14103;DHT22;7129;48.832;12.472;2022-07-10T18:08:39;19.00;91.50
14103;DHT22;7129;48.832;12.472;2022-07-10T18:13:44;18.90;92.00
14103;DHT22;7129;48.832;12.472;2022-07-10T18:19:06;18.70;92.00
14103;DHT22;7129;48.832;12.472;2022-07-10T18:24:09;18.80;91.70
14103;DHT22;7129;48.832;12.472;2022-07-10T18:34:58;18.70;92.90
14103;DHT22;7129;48.832;12.472;2022-07-10T18:40:00;18.60;93.20
14103;DHT22;7129;48.832;12.472;2022-07-10T18:45:02;18.70;92.80
14103;DHT22;7129;48.832;12.472;2022-07-10T18:50:06;18.60;93.50
14103;DHT22;7129;48.832;12.472;2022-07-10T18:55:09;18.40;93.00
14103;DHT22;7129;48.832;12.472;2022-07-10T19:00:11;18.30;93.90
14103;DHT22;7129;48.832;12.472;2022-07-10T19:05:15;18.20;93.90
14103;DHT22;7129;48.832;12.472;2022-07-10T19:10:17;18.10;93.90
14103;DHT22;7129;48.832;12.472;2022-07-10T19:15:19;17.90;93.50
14103;DHT22;7129;48.832;12.472;2022-07-10T19:20:26;17.90;93.60
14103;DHT22;7129;48.832;12.472;2022-07-10T19:25:29;17.70;93.70
14103;DHT22;7129;48.832;12.472;2022-07-10T19:30:41;17.60;93.90
14103;DHT22;7129;48.832;12.472;2022-07-10T19:35:45;18.20;93.40
14103;DHT22;7129;48.832;12.472;2022-07-10T19:40:49;17.90;93.20
14103;DHT22;7129;48.832;12.472;2022-07-10T19:45:54;17.50;93.40
14103;DHT22;7129;48.832;12.472;2022-07-10T22:56:32;15.00;95.90
14103;DHT22;7129;48.832;12.472;2022-07-10T23:17:51;14.80;96.20
14103;DHT22;7129;48.832;12.472;2022-07-10T23:23:05;14.70;96.30
14103;DHT22;7129;48.832;12.472;2022-07-10T23:28:21;14.70;96.50
